Time;durP1;ratioP1;P1;durP2;ratioP2;P2;SDS_P1;SDS_P2;PMS_P1;PMS_P2;Temp;Humidity;BMP_temperature;BMP_pressure;BME280_temperature;BME280_humidity;BME280_pressure;Samples;Min_cycle;Max_cycle;Signal;HPM_P1;HPM_P2
2023/01/09 00:00:51;;;;;;;2.67;0.83;;;7.70;99.90;;;;;;4975885;28;20756;-87
2023/01/09 00:03:16;;;;;;;1.20;1.20;;;7.70;99.90;;;;;;4957165;28;20205;-87
2023/01/09 00:05:42;;;;;;;0.40;0.30;;;7.70;99.90;;;;;;4951016;28;20188;-84
2023/01/09 00:08:08;;;;;;;0.30;0.30;;;7.70;99.90;;;;;;4974955;28;20223;-85
2023/01/09 00:10:34;;;;;;;6.90;0.80;;;7.70;99.90;;;;;;4940868;28;20682;-84
2023/01/09 00:13:00;;;;;;;1.43;0.87;;;7.70;99.90;;;;;;4951451;28;20290;-85
2023/01/09 00:15:25;;;;;;;0.23;0.23;;;7.70;99.90;;;;;;4955424;28;20600;-85
2023/01/09 00:17:51;;;;;;;0.63;0.63;;;7.70;99.90;;;;;;4975188;28;20200;-84
2023/01/09 00:20:17;;;;;;;3.90;1.30;;;7.70;99.90;;;;;;4979691;28;20307;-86
2023/01/09 00:22:43;;;;;;;0.30;0.30;;;7.70;99.90;;;;;;4950099;28;20232;-84
2023/01/09 00:25:09;;;;;;;0.60;0.60;;;7.70;99.90;;;;;;4956567;28;20613;-85
2023/01/09 00:27:35;;;;;;;0.67;0.67;;;7.70;99.90;;;;;;4961075;28;20504;-84
2023/01/09 00:30:01;;;;;;;2.43;1.00;;;7.70;99.90;;;;;;4975479;28;20230;-85
2023/01/09 00:32:27;;;;;;;1.27;1.23;;;7.70;99.90;;;;;;4954631;28;20236;-86
2023/01/09 00:34:54;;;;;;;0.40;0.40;;;7.70;99.90;;;;;;4955734;28;20702;-84
2023/01/09 00:37:20;;;;;;;0.33;0.33;;;7.80;99.90;;;;;;4958880;28;20251;-86
2023/01/09 00:39:46;;;;;;;0.77;0.77;;;7.80;99.90;;;;;;4954711;28;20701;-86
2023/01/09 00:42:19;;;;;;;0.50;0.50;;;7.80;99.90;;;;;;4977098;28;20231;-87
2023/01/09 00:44:49;;;;;;;0.40;0.40;;;7.80;99.90;;;;;;4960612;28;20188;-86
2023/01/09 00:47:29;;;;;;;0.47;0.47;;;7.80;99.90;;;;;;4976551;28;20246;-85
2023/01/09 00:49:59;;;;;;;1.10;0.80;;;7.80;99.90;;;;;;4973166;28;20572;-85
2023/01/09 00:52:25;;;;;;;1.50;0.63;;;7.80;99.90;;;;;;4971579;28;20212;-87
2023/01/09 00:54:51;;;;;;;0.40;0.40;;;7.80;99.90;;;;;;4949908;28;20605;-85
2023/01/09 00:57:17;;;;;;;0.67;0.67;;;7.80;99.90;;;;;;4950539;28;20219;-85
2023/01/09 00:59:43;;;;;;;0.50;0.50;;;7.80;99.90;;;;;;4950079;28;20195;-85
2023/01/09 01:02:09;;;;;;;0.50;0.50;;;7.80;99.90;;;;;;4951614;28;20193;-85
2023/01/09 01:07:37;;;;;;;0.27;0.27;;;7.80;99.90;;;;;;4973054;28;20256;-87
2023/01/09 01:10:30;;;;;;;0.87;0.77;;;7.80;99.90;;;;;;4941957;28;20247;-85
2023/01/09 01:12:55;;;;;;;2.23;1.50;;;7.90;99.90;;;;;;4964207;28;20228;-85
2023/01/09 01:15:21;;;;;;;0.57;0.57;;;7.90;99.90;;;;;;4950239;28;20585;-85
2023/01/09 01:17:47;;;;;;;0.70;0.70;;;7.90;99.90;;;;;;4977607;28;20539;-84
2023/01/09 01:20:16;;;;;;;0.90;0.90;;;7.90;99.90;;;;;;4958638;28;20188;-85
2023/01/09 01:22:42;;;;;;;0.73;0.73;;;7.90;99.90;;;;;;4957943;28;20274;-83
2023/01/09 01:25:09;;;;;;;1.50;1.03;;;7.90;99.90;;;;;;4957813;28;20227;-86
2023/01/09 01:27:35;;;;;;;0.90;0.90;;;7.80;99.90;;;;;;4974354;28;20633;-86
2023/01/09 01:30:01;;;;;;;0.57;0.57;;;7.80;99.90;;;;;;4974778;28;20728;-87
2023/01/09 01:32:27;;;;;;;0.30;0.30;;;7.70;99.90;;;;;;4974947;28;20689;-87
2023/01/09 01:34:52;;;;;;;1.70;1.07;;;7.60;99.90;;;;;;4950181;28;20238;-87
2023/01/09 01:37:20;;;;;;;1.13;0.50;;;7.60;99.90;;;;;;4951319;28;20846;-88
2023/01/09 01:39:46;;;;;;;0.50;0.50;;;7.60;99.90;;;;;;4957279;28;20375;-86
2023/01/09 01:42:13;;;;;;;2.43;0.60;;;7.50;99.90;;;;;;4973963;28;20315;-86
2023/01/09 01:45:08;;;;;;;7.10;1.03;;;7.50;99.90;;;;;;4956039;28;20699;-86
2023/01/09 01:47:37;;;;;;;1.97;1.90;;;7.50;99.90;;;;;;4973415;28;20192;-86
2023/01/09 01:50:14;;;;;;;0.40;0.40;;;7.40;99.90;;;;;;4971303;28;20185;-86
2023/01/09 01:52:43;;;;;;;9.53;1.63;;;7.40;99.90;;;;;;4973618;28;20238;-86
2023/01/09 01:55:09;;;;;;;0.40;0.40;;;7.30;99.90;;;;;;4950363;28;20236;-86
2023/01/09 01:57:38;;;;;;;5.23;0.53;;;7.30;99.90;;;;;;4970344;28;20248;-86
2023/01/09 02:00:05;;;;;;;1.70;0.50;;;7.20;99.90;;;;;;4956141;28;20227;-86
2023/01/09 02:02:32;;;;;;;0.30;0.30;;;7.20;99.90;;;;;;4950858;28;20680;-86
2023/01/09 02:05:00;;;;;;;0.40;0.40;;;7.10;99.90;;;;;;4976559;28;20691;-86
2023/01/09 02:07:26;;;;;;;2.90;1.60;;;7.10;99.90;;;;;;4958220;28;20608;-86
2023/01/09 02:09:53;;;;;;;0.43;0.43;;;7.00;99.90;;;;;;4958878;28;20220;-87
2023/01/09 02:12:25;;;;;;;0.30;0.30;;;6.90;99.90;;;;;;4975297;28;20767;-87
2023/01/09 02:15:06;;;;;;;0.53;0.50;;;6.90;99.90;;;;;;4971066;28;20301;-87
2023/01/09 02:18:03;;;;;;;0.50;0.50;;;6.80;99.90;;;;;;4961244;28;20239;-87
2023/01/09 02:20:42;;;;;;;0.23;0.23;;;6.80;99.90;;;;;;4976884;28;20220;-85
2023/01/09 02:23:27;;;;;;;0.20;0.20;;;6.70;99.90;;;;;;4972826;28;20279;-86
2023/01/09 02:26:12;;;;;;;0.30;0.30;;;6.70;99.90;;;;;;4976029;28;20239;-87
2023/01/09 02:29:07;;;;;;;0.20;0.20;;;6.60;99.90;;;;;;4971966;28;20222;-86
2023/01/09 02:31:45;;;;;;;0.37;0.37;;;6.60;99.90;;;;;;4957471;28;20282;-85
2023/01/09 02:34:17;;;;;;;0.47;0.47;;;6.60;99.90;;;;;;4970880;28;20709;-85
2023/01/09 02:36:57;;;;;;;10.83;1.70;;;6.50;99.90;;;;;;4970568;28;20272;-87
2023/01/09 02:39:42;;;;;;;0.33;0.33;;;6.40;99.90;;;;;;4956763;28;20224;-86
2023/01/09 02:42:17;;;;;;;0.40;0.40;;;6.40;99.90;;;;;;4974489;28;20216;-85
2023/01/09 02:44:43;;;;;;;0.30;0.30;;;6.30;99.90;;;;;;4969586;28;20646;-85
2023/01/09 02:47:15;;;;;;;0.90;0.47;;;6.30;99.90;;;;;;4963312;28;20223;-87
2023/01/09 02:49:44;;;;;;;0.20;0.20;;;6.30;99.90;;;;;;4970472;28;20356;-85
2023/01/09 02:52:13;;;;;;;14.07;0.73;;;6.20;99.90;;;;;;4974211;28;20213;-87
2023/01/09 02:54:48;;;;;;;1.87;0.77;;;6.10;99.90;;;;;;4971451;28;20243;-87
2023/01/09 02:57:21;;;;;;;0.47;0.47;;;6.10;99.90;;;;;;4970766;28;20236;-88
2023/01/09 03:00:28;;;;;;;0.30;0.30;;;6.10;99.90;;;;;;4957090;28;20264;-87
2023/01/09 03:03:08;;;;;;;0.47;0.47;;;6.00;99.90;;;;;;4952508;28;20305;-87
2023/01/09 03:05:43;;;;;;;0.60;0.60;;;6.00;99.90;;;;;;4951141;28;20500;-85
2023/01/09 03:08:18;;;;;;;0.30;0.30;;;6.00;99.90;;;;;;4974507;28;20184;-86
2023/01/09 03:10:59;;;;;;;0.30;0.30;;;6.00;99.90;;;;;;4969070;28;20299;-85
2023/01/09 03:13:34;;;;;;;3.90;0.50;;;5.90;99.90;;;;;;4955217;28;20219;-86
2023/01/09 03:16:05;;;;;;;0.73;0.73;;;6.00;99.90;;;;;;4962351;28;20219;-85
2023/01/09 03:18:32;;;;;;;4.60;1.27;;;5.90;99.90;;;;;;4963391;28;20244;-87
2023/01/09 03:20:59;;;;;;;1.60;0.70;;;5.90;99.90;;;;;;4951599;28;20584;-87
2023/01/09 03:23:25;;;;;;;1.37;1.27;;;6.00;99.90;;;;;;4978848;28;20176;-85
2023/01/09 03:25:50;;;;;;;2.33;1.30;;;6.00;99.90;;;;;;4978058;28;20362;-85
2023/01/09 03:28:28;;;;;;;1.00;0.50;;;6.00;99.90;;;;;;4950961;28;20553;-86
2023/01/09 03:30:54;;;;;;;0.60;0.43;;;6.00;99.90;;;;;;4957528;28;20212;-85
2023/01/09 03:33:20;;;;;;;1.73;0.90;;;6.00;99.90;;;;;;4977738;28;20243;-85
2023/01/09 03:35:46;;;;;;;0.77;0.77;;;6.00;99.90;;;;;;4959239;28;20220;-86
2023/01/09 03:38:12;;;;;;;0.50;0.40;;;6.00;99.90;;;;;;4960967;28;20712;-85
2023/01/09 03:40:37;;;;;;;8.50;0.60;;;6.00;99.90;;;;;;4960291;28;20270;-87
2023/01/09 03:43:03;;;;;;;0.50;0.50;;;6.00;99.90;;;;;;4960257;28;20212;-85
2023/01/09 03:45:29;;;;;;;0.40;0.40;;;6.00;99.90;;;;;;4976922;28;20586;-87
2023/01/09 03:47:57;;;;;;;0.70;0.70;;;6.00;99.90;;;;;;4941506;28;20618;-88
2023/01/09 03:50:23;;;;;;;0.87;0.87;;;6.00;99.90;;;;;;4977969;28;20196;-87
2023/01/09 03:52:48;;;;;;;0.20;0.20;;;6.10;99.90;;;;;;4951504;28;20229;-87
2023/01/09 03:55:14;;;;;;;0.37;0.37;;;6.10;99.90;;;;;;4954556;28;20347;-87
2023/01/09 03:57:40;;;;;;;0.60;0.50;;;6.10;99.90;;;;;;4960017;28;20224;-86
2023/01/09 04:00:07;;;;;;;0.50;0.50;;;6.00;99.90;;;;;;4957572;28;20247;-87
2023/01/09 04:02:33;;;;;;;1.13;1.03;;;6.00;99.90;;;;;;4964386;28;20200;-85
2023/01/09 04:04:58;;;;;;;0.37;0.33;;;6.00;99.90;;;;;;4952842;28;20235;-87
2023/01/09 04:07:24;;;;;;;0.43;0.43;;;6.00;99.90;;;;;;4951789;28;20307;-86
2023/01/09 04:09:50;;;;;;;0.60;0.60;;;6.00;99.90;;;;;;4949527;28;20615;-86
2023/01/09 04:12:15;;;;;;;1.67;1.57;;;6.00;99.90;;;;;;4975187;28;20224;-85
2023/01/09 04:14:41;;;;;;;1.10;1.10;;;6.00;99.90;;;;;;4951871;28;20191;-86
2023/01/09 04:17:07;;;;;;;0.80;0.80;;;6.00;99.90;;;;;;4977159;28;20258;-85
2023/01/09 04:19:33;;;;;;;1.90;1.00;;;6.00;99.90;;;;;;4951250;28;20251;-86
2023/01/09 04:21:58;;;;;;;0.97;0.97;;;6.00;99.90;;;;;;4957441;28;20235;-88
2023/01/09 04:24:24;;;;;;;0.80;0.80;;;6.00;99.90;;;;;;4956390;28;20696;-87
2023/01/09 04:26:50;;;;;;;1.87;1.57;;;6.10;99.90;;;;;;4955172;28;20215;-87
2023/01/09 04:29:15;;;;;;;2.10;1.70;;;6.10;99.90;;;;;;4950948;28;20609;-87
2023/01/09 04:31:41;;;;;;;1.43;1.10;;;6.10;99.90;;;;;;4956228;28;20216;-85
2023/01/09 04:34:07;;;;;;;0.90;0.90;;;6.10;99.90;;;;;;4951826;28;20244;-86
2023/01/09 04:36:35;;;;;;;1.00;1.00;;;6.20;99.90;;;;;;4950695;28;20243;-87
2023/01/09 04:39:02;;;;;;;1.63;1.57;;;6.20;99.90;;;;;;4956168;28;20212;-86
2023/01/09 04:44:11;;;;;;;1.13;1.13;;;6.30;99.90;;;;;;4961369;28;20225;-87
2023/01/09 04:46:37;;;;;;;1.03;0.97;;;6.20;99.90;;;;;;4951858;28;20270;-86
2023/01/09 04:49:03;;;;;;;2.67;1.37;;;6.20;99.90;;;;;;4961818;28;20215;-85
2023/01/09 04:51:28;;;;;;;2.30;1.37;;;6.20;99.90;;;;;;4961405;28;20226;-88
2023/01/09 04:53:54;;;;;;;0.97;0.97;;;6.20;99.90;;;;;;4950775;28;20215;-87
2023/01/09 04:56:20;;;;;;;1.87;1.77;;;6.20;99.90;;;;;;4959446;28;20580;-87
2023/01/09 04:58:46;;;;;;;0.87;0.70;;;6.10;99.90;;;;;;4975335;28;20224;-87
2023/01/09 05:01:11;;;;;;;0.97;0.97;;;6.20;99.90;;;;;;4960922;28;20303;-88
2023/01/09 05:03:37;;;;;;;2.43;1.87;;;6.30;99.90;;;;;;4958253;28;20216;-87
2023/01/09 05:06:06;;;;;;;1.63;1.53;;;6.40;99.90;;;;;;4950527;28;20224;-87
2023/01/09 05:08:31;;;;;;;2.63;2.43;;;6.40;99.90;;;;;;4957957;28;20200;-87
2023/01/09 05:10:57;;;;;;;2.70;2.47;;;6.50;99.90;;;;;;4951673;28;20588;-85
2023/01/09 05:13:23;;;;;;;1.90;1.80;;;6.50;99.90;;;;;;4949346;28;20221;-86
2023/01/09 05:15:49;;;;;;;1.47;1.00;;;6.60;99.90;;;;;;4949546;28;20731;-87
2023/01/09 05:18:14;;;;;;;2.23;2.03;;;6.60;99.90;;;;;;4975298;28;20224;-86
2023/01/09 05:20:40;;;;;;;1.33;1.03;;;6.60;99.90;;;;;;4951258;28;20188;-87
2023/01/09 05:23:06;;;;;;;1.93;1.83;;;6.60;99.90;;;;;;4958076;28;20188;-86
2023/01/09 05:25:31;;;;;;;1.57;1.47;;;6.70;99.90;;;;;;4958231;28;20733;-86
2023/01/09 05:27:58;;;;;;;3.00;2.80;;;6.70;99.90;;;;;;4958667;28;20255;-86
2023/01/09 05:30:24;;;;;;;2.43;1.80;;;6.70;99.90;;;;;;4953365;28;20315;-86
2023/01/09 05:32:50;;;;;;;2.13;2.03;;;6.70;99.90;;;;;;4971705;28;20319;-87
2023/01/09 05:35:16;;;;;;;4.60;2.17;;;6.80;99.90;;;;;;4955354;28;20232;-86
2023/01/09 05:37:41;;;;;;;0.60;0.60;;;6.80;99.90;;;;;;4959160;28;20254;-86
2023/01/09 05:40:08;;;;;;;2.63;2.43;;;6.80;99.90;;;;;;4955396;28;20337;-86
2023/01/09 05:42:33;;;;;;;2.10;1.77;;;6.80;99.90;;;;;;4950083;28;20685;-86
2023/01/09 05:44:59;;;;;;;1.87;1.67;;;6.80;99.90;;;;;;4955901;28;20227;-86
2023/01/09 05:47:25;;;;;;;1.90;1.77;;;6.90;99.90;;;;;;4955580;28;20213;-88
2023/01/09 05:49:51;;;;;;;4.23;1.60;;;6.90;99.90;;;;;;4957333;28;20231;-87
2023/01/09 05:52:16;;;;;;;0.83;0.83;;;7.00;99.90;;;;;;4959891;28;20228;-88
2023/01/09 05:54:42;;;;;;;0.73;0.73;;;7.00;99.90;;;;;;4949614;28;20606;-87
2023/01/09 05:57:08;;;;;;;2.00;1.47;;;7.00;99.90;;;;;;4974235;28;20728;-85
2023/01/09 05:59:33;;;;;;;0.87;0.87;;;7.00;99.90;;;;;;4960314;28;20268;-83
2023/01/09 06:01:59;;;;;;;2.03;1.93;;;7.00;99.90;;;;;;4951955;28;20690;-87
2023/01/09 06:04:28;;;;;;;2.13;1.93;;;7.10;99.90;;;;;;4956195;28;20236;-88
2023/01/09 06:06:55;;;;;;;1.17;1.17;;;7.10;99.90;;;;;;4955293;28;20222;-88
2023/01/09 06:09:21;;;;;;;3.50;3.20;;;7.10;99.90;;;;;;4954557;28;20224;-88
2023/01/09 06:11:46;;;;;;;6.17;1.73;;;7.10;99.90;;;;;;4974117;28;20259;-88
2023/01/09 06:14:12;;;;;;;1.67;1.37;;;7.10;99.90;;;;;;4949359;28;20489;-87
2023/01/09 06:16:38;;;;;;;1.87;1.77;;;7.10;99.90;;;;;;4959394;28;20747;-87
2023/01/09 06:19:04;;;;;;;3.53;2.53;;;7.10;99.90;;;;;;4976065;28;20268;-87
2023/01/09 06:21:31;;;;;;;5.20;1.73;;;7.10;99.90;;;;;;4948821;28;20231;-85
2023/01/09 06:23:57;;;;;;;3.67;2.80;;;7.20;99.90;;;;;;4953970;28;20216;-85
2023/01/09 06:26:25;;;;;;;3.53;3.23;;;7.20;99.90;;;;;;4973031;28;20192;-88
2023/01/09 06:28:51;;;;;;;4.40;2.90;;;7.20;99.90;;;;;;4949505;28;20219;-87
2023/01/09 06:31:17;;;;;;;3.37;2.67;;;7.20;99.90;;;;;;4950317;28;20228;-86
2023/01/09 06:33:42;;;;;;;3.33;3.03;;;7.20;99.90;;;;;;4957286;28;20291;-87
2023/01/09 06:36:08;;;;;;;3.27;2.13;;;7.20;99.90;;;;;;4954359;28;20334;-86
2023/01/09 06:38:34;;;;;;;2.80;2.57;;;7.10;99.90;;;;;;4961072;28;20192;-86
2023/01/09 06:41:00;;;;;;;1.70;1.60;;;7.20;99.90;;;;;;4977661;28;20223;-87
2023/01/09 06:43:25;;;;;;;4.07;2.20;;;7.20;99.90;;;;;;4948793;28;20724;-87
2023/01/09 06:45:51;;;;;;;2.20;2.03;;;7.20;99.90;;;;;;4960673;28;20224;-88
2023/01/09 06:48:17;;;;;;;4.43;3.53;;;7.20;99.90;;;;;;4948449;28;20216;-88
2023/01/09 06:50:44;;;;;;;10.67;8.67;;;7.20;99.90;;;;;;4953271;28;20211;-86
2023/01/09 06:53:10;;;;;;;12.80;7.23;;;7.20;99.90;;;;;;4958930;28;20262;-89
2023/01/09 06:55:36;;;;;;;12.47;4.27;;;7.20;99.90;;;;;;4981162;28;20231;-88
2023/01/09 06:58:02;;;;;;;12.07;6.93;;;7.20;99.90;;;;;;4976084;28;20656;-88
2023/01/09 07:00:28;;;;;;;17.60;10.97;;;7.20;99.90;;;;;;4977069;28;20221;-88
2023/01/09 07:02:54;;;;;;;10.97;7.50;;;7.20;99.90;;;;;;4963346;28;20520;-89
2023/01/09 07:05:19;;;;;;;6.90;3.97;;;7.10;99.90;;;;;;4956873;28;20196;-88
2023/01/09 07:07:45;;;;;;;5.73;5.00;;;7.20;99.90;;;;;;4962875;28;20268;-88
2023/01/09 07:10:11;;;;;;;7.50;5.20;;;7.10;99.90;;;;;;4977148;28;20219;-88
2023/01/09 07:12:37;;;;;;;3.90;2.90;;;7.10;99.90;;;;;;4968647;28;20527;-87
2023/01/09 07:15:03;;;;;;;6.40;5.83;;;7.10;99.90;;;;;;4962850;28;20235;-87
2023/01/09 07:17:28;;;;;;;4.97;2.30;;;7.10;99.90;;;;;;4964190;28;20284;-88
2023/01/09 07:19:54;;;;;;;2.50;2.30;;;7.10;99.90;;;;;;4947506;28;20221;-86
2023/01/09 07:22:20;;;;;;;9.20;4.30;;;7.00;99.90;;;;;;4973946;28;20578;-86
2023/01/09 07:24:46;;;;;;;3.27;2.97;;;7.00;99.90;;;;;;4978737;28;20263;-89
2023/01/09 07:27:12;;;;;;;3.70;3.10;;;7.00;99.90;;;;;;4953452;28;20228;-90
2023/01/09 07:29:37;;;;;;;12.43;4.63;;;7.00;99.90;;;;;;4951958;28;20187;-89
2023/01/09 07:32:04;;;;;;;5.13;4.63;;;7.00;99.90;;;;;;4953952;28;20637;-88
2023/01/09 07:34:29;;;;;;;2.80;2.57;;;7.00;99.90;;;;;;4963330;28;20286;-88
2023/01/09 07:36:55;;;;;;;5.90;3.13;;;7.00;99.90;;;;;;4958632;28;20852;-89
2023/01/09 07:39:21;;;;;;;4.03;3.60;;;7.00;99.90;;;;;;4978000;28;20231;-88
2023/01/09 07:41:47;;;;;;;3.03;2.73;;;7.00;99.90;;;;;;4964969;28;20291;-89
2023/01/09 07:44:13;;;;;;;2.53;2.33;;;7.00;99.90;;;;;;4961053;28;20584;-90
2023/01/09 07:46:39;;;;;;;3.63;2.33;;;7.00;99.90;;;;;;4981989;28;20226;-87
2023/01/09 07:49:05;;;;;;;2.73;2.53;;;7.00;99.90;;;;;;4958346;28;20578;-87
2023/01/09 07:51:31;;;;;;;3.87;3.10;;;7.00;99.90;;;;;;4957347;28;20224;-89
2023/01/09 07:53:57;;;;;;;2.80;2.70;;;7.00;99.90;;;;;;4961378;28;20211;-89
2023/01/09 07:56:23;;;;;;;3.13;3.00;;;7.00;99.90;;;;;;4961751;28;20205;-88
2023/01/09 07:58:48;;;;;;;5.67;3.70;;;7.00;99.90;;;;;;4958946;28;20695;-88
2023/01/09 08:01:15;;;;;;;4.17;3.40;;;7.00;99.90;;;;;;4951970;28;20215;-88
2023/01/09 08:03:40;;;;;;;5.07;2.97;;;7.00;99.90;;;;;;4958810;28;20371;-87
2023/01/09 08:06:07;;;;;;;4.73;2.97;;;7.00;99.90;;;;;;4957035;28;20236;-88
2023/01/09 08:08:32;;;;;;;2.13;1.97;;;6.90;99.90;;;;;;4959426;28;20180;-88
2023/01/09 08:10:58;;;;;;;5.87;2.80;;;6.80;99.90;;;;;;4956298;28;20208;-88
2023/01/09 08:13:24;;;;;;;3.80;3.47;;;6.80;99.90;;;;;;4951837;28;20216;-88
2023/01/09 08:15:49;;;;;;;1.93;1.73;;;6.70;99.90;;;;;;4959098;28;20294;-88
2023/01/09 08:18:15;;;;;;;5.03;2.83;;;6.70;99.90;;;;;;4949986;28;20251;-88
2023/01/09 08:20:41;;;;;;;3.03;2.73;;;6.70;99.90;;;;;;4961472;28;20194;-89
2023/01/09 08:23:07;;;;;;;9.80;4.60;;;6.60;99.90;;;;;;4962103;28;20195;-87
2023/01/09 08:25:32;;;;;;;5.07;2.57;;;6.70;99.90;;;;;;4950219;28;20334;-88
2023/01/09 08:27:58;;;;;;;17.47;9.23;;;6.70;99.90;;;;;;4951141;28;20223;-88
2023/01/09 08:30:24;;;;;;;4.43;4.10;;;6.70;99.90;;;;;;4948632;28;20219;-88
2023/01/09 08:32:52;;;;;;;3.57;3.23;;;6.60;99.90;;;;;;4951393;28;20284;-89
2023/01/09 08:35:18;;;;;;;5.60;4.40;;;6.60;99.90;;;;;;4975760;28;20239;-88
2023/01/09 08:37:48;;;;;;;3.77;2.97;;;6.60;99.90;;;;;;4960087;28;20228;-89
2023/01/09 08:40:15;;;;;;;4.37;2.57;;;6.60;99.90;;;;;;4960734;28;20303;-90
2023/01/09 08:48:10;;;;;;;0.97;0.87;;;6.70;99.90;;;;;;4976667;28;20290;-87
2023/01/09 08:50:36;;;;;;;5.30;3.10;;;6.60;99.90;;;;;;4958085;28;20433;-86
2023/01/09 08:53:02;;;;;;;5.80;2.33;;;6.60;99.90;;;;;;4959792;28;20176;-85
2023/01/09 08:55:28;;;;;;;2.13;1.87;;;6.60;99.90;;;;;;4965610;28;20231;-87
2023/01/09 08:57:54;;;;;;;1.40;1.37;;;6.60;99.90;;;;;;4963777;28;20559;-87
2023/01/09 09:00:22;;;;;;;2.03;1.80;;;6.60;99.90;;;;;;4950590;28;20307;-88
2023/01/09 09:02:56;;;;;;;2.10;2.00;;;6.60;99.90;;;;;;4976016;28;20195;-88
2023/01/09 09:05:22;;;;;;;2.63;1.87;;;6.60;99.90;;;;;;4941042;28;20224;-87
2023/01/09 09:07:49;;;;;;;3.40;3.10;;;6.60;99.90;;;;;;4961984;28;20230;-89
2023/01/09 09:10:19;;;;;;;1.93;1.83;;;6.70;99.90;;;;;;4972957;28;20227;-88
2023/01/09 09:12:47;;;;;;;1.53;1.33;;;6.70;99.90;;;;;;4947093;28;20699;-88
2023/01/09 09:15:15;;;;;;;2.07;1.97;;;6.70;99.90;;;;;;4972573;28;20323;-89
2023/01/09 09:17:42;;;;;;;2.10;2.00;;;6.70;99.90;;;;;;4960160;28;20287;-88
2023/01/09 09:20:11;;;;;;;1.73;1.63;;;6.70;99.90;;;;;;4959600;28;20183;-89
2023/01/09 09:22:37;;;;;;;2.47;1.47;;;6.70;99.90;;;;;;4975152;28;20208;-89
2023/01/09 09:25:03;;;;;;;1.67;1.37;;;6.80;99.90;;;;;;4950133;28;20243;-89
2023/01/09 09:27:30;;;;;;;2.30;2.13;;;6.80;99.90;;;;;;4949518;28;20212;-87
2023/01/09 09:29:56;;;;;;;2.07;1.97;;;6.90;99.90;;;;;;4956811;28;20395;-89
2023/01/09 09:32:22;;;;;;;1.63;1.50;;;7.00;99.90;;;;;;4950713;28;20190;-87
2023/01/09 09:34:47;;;;;;;0.57;0.57;;;7.00;99.90;;;;;;4949297;28;20730;-88
2023/01/09 09:37:13;;;;;;;1.53;1.43;;;7.00;99.90;;;;;;4941731;28;20327;-87
2023/01/09 09:39:39;;;;;;;1.10;1.07;;;7.00;99.90;;;;;;4957121;28;20231;-90
2023/01/09 09:45:34;;;;;;;5.00;2.10;;;7.10;99.90;;;;;;4962250;28;20216;-88
2023/01/09 09:48:21;;;;;;;2.50;2.20;;;7.10;99.90;;;;;;4973651;28;20212;-90
2023/01/09 09:50:56;;;;;;;3.40;2.40;;;7.10;99.90;;;;;;4967675;28;20807;-88
2023/01/09 09:53:49;;;;;;;3.07;2.03;;;7.20;99.90;;;;;;4973206;28;20262;-90
2023/01/09 09:56:17;;;;;;;1.23;1.20;;;7.20;99.90;;;;;;4975896;28;20387;-88
2023/01/09 09:58:49;;;;;;;1.63;0.90;;;7.20;99.90;;;;;;4992800;28;20216;-89
2023/01/09 10:01:20;;;;;;;1.93;1.63;;;7.30;99.90;;;;;;4965286;28;20665;-87
2023/01/09 10:03:57;;;;;;;1.93;1.53;;;7.40;99.90;;;;;;4976686;28;20222;-89
2023/01/09 10:06:31;;;;;;;1.67;1.57;;;7.40;99.90;;;;;;4974304;28;20637;-85
2023/01/09 10:08:57;;;;;;;1.57;1.50;;;7.50;99.90;;;;;;4972774;28;20229;-86
2023/01/09 10:11:31;;;;;;;2.73;1.43;;;7.60;99.90;;;;;;4975611;28;20360;-85
2023/01/09 10:14:06;;;;;;;4.30;2.27;;;7.60;99.90;;;;;;4953971;28;20228;-87
2023/01/09 10:16:56;;;;;;;1.83;1.73;;;7.60;99.90;;;;;;4955721;28;20794;-89
2023/01/09 10:20:16;;;;;;;0.77;0.70;;;7.70;99.90;;;;;;4974363;28;20269;-87
2023/01/09 10:22:51;;;;;;;2.43;1.50;;;7.70;99.90;;;;;;4956626;28;20212;-89
2023/01/09 10:25:30;;;;;;;1.73;1.53;;;7.70;99.90;;;;;;4972661;28;20254;-90
2023/01/09 10:28:26;;;;;;;2.73;1.23;;;7.70;99.90;;;;;;4959204;28;20219;-88
2023/01/09 10:31:12;;;;;;;1.50;1.40;;;7.80;99.90;;;;;;4973950;28;20748;-87
2023/01/09 10:33:52;;;;;;;1.77;1.10;;;7.90;99.90;;;;;;4957718;28;20203;-89
2023/01/09 10:36:40;;;;;;;1.83;1.73;;;8.00;99.90;;;;;;4975528;28;20286;-90
2023/01/09 10:39:13;;;;;;;2.13;1.23;;;8.00;99.90;;;;;;4975833;28;20232;-89
2023/01/09 10:42:03;;;;;;;1.93;0.97;;;8.10;99.90;;;;;;4975558;28;20573;-88
2023/01/09 10:44:39;;;;;;;1.67;1.57;;;8.10;99.90;;;;;;4973799;28;20217;-86
2023/01/09 10:47:17;;;;;;;4.17;2.53;;;8.10;99.90;;;;;;4956517;28;20760;-89
2023/01/09 10:49:45;;;;;;;2.60;1.93;;;8.20;99.90;;;;;;4958099;28;20223;-88
2023/01/09 10:52:19;;;;;;;1.70;1.60;;;8.40;99.90;;;;;;4973253;28;20687;-88
2023/01/09 10:55:11;;;;;;;8.90;1.77;;;8.30;99.90;;;;;;4959209;28;20214;-88
2023/01/09 10:57:41;;;;;;;1.90;1.70;;;8.40;99.90;;;;;;4945521;28;20215;-87
2023/01/09 11:00:20;;;;;;;1.13;1.03;;;8.50;99.90;;;;;;4957674;28;20185;-86
2023/01/09 11:02:47;;;;;;;1.23;0.97;;;8.50;99.90;;;;;;4960615;28;20239;-84
2023/01/09 11:05:25;;;;;;;5.57;2.40;;;8.60;99.90;;;;;;4971106;28;20248;-84
2023/01/09 11:07:59;;;;;;;3.13;2.90;;;8.60;99.90;;;;;;4958281;28;20219;-88
2023/01/09 11:10:44;;;;;;;1.27;1.27;;;8.60;99.90;;;;;;4956613;28;20221;-85
2023/01/09 11:13:44;;;;;;;4.40;3.50;;;8.50;99.90;;;;;;4972789;28;20232;-86
2023/01/09 11:16:09;;;;;;;4.97;2.00;;;8.50;99.90;;;;;;4954844;28;20240;-87
2023/01/09 11:19:00;;;;;;;2.73;2.07;;;8.40;99.90;;;;;;4976459;28;20796;-87
2023/01/09 11:21:34;;;;;;;4.47;3.03;;;8.30;99.90;;;;;;4945916;28;20283;-86
2023/01/09 11:24:21;;;;;;;2.83;2.43;;;8.50;99.90;;;;;;4960527;28;20633;-87
2023/01/09 11:26:50;;;;;;;5.77;1.67;;;8.70;99.90;;;;;;4974061;28;20232;-85
2023/01/09 11:29:19;;;;;;;2.30;1.90;;;8.70;99.90;;;;;;4957804;28;20307;-86
2023/01/09 11:31:53;;;;;;;5.13;4.63;;;8.60;99.90;;;;;;4976526;28;20224;-87
2023/01/09 11:34:24;;;;;;;3.40;3.20;;;8.50;99.90;;;;;;4957246;28;20220;-87
2023/01/09 11:36:52;;;;;;;3.00;1.57;;;8.60;99.90;;;;;;4959854;28;20232;-85
2023/01/09 11:39:24;;;;;;;9.47;3.63;;;8.70;99.90;;;;;;4961922;28;20185;-86
2023/01/09 11:42:03;;;;;;;1.93;1.43;;;8.80;99.90;;;;;;4975845;28;20221;-87
2023/01/09 11:44:30;;;;;;;1.93;1.83;;;8.80;99.90;;;;;;4961303;28;20207;-86
2023/01/09 11:46:56;;;;;;;2.10;1.97;;;8.90;99.90;;;;;;4978128;28;20712;-86
2023/01/09 11:49:28;;;;;;;2.80;2.60;;;8.80;99.90;;;;;;4960334;28;20505;-87
2023/01/09 11:52:18;;;;;;;2.57;2.17;;;8.70;99.90;;;;;;4978206;28;20453;-86
2023/01/09 11:55:09;;;;;;;2.77;2.57;;;8.70;99.90;;;;;;4961588;28;20653;-85
2023/01/09 11:57:35;;;;;;;1.33;1.33;;;8.80;99.90;;;;;;4974274;28;20197;-85
2023/01/09 12:00:22;;;;;;;2.20;1.50;;;8.90;99.90;;;;;;4952910;28;20225;-85
2023/01/09 12:03:11;;;;;;;3.47;2.23;;;9.10;99.90;;;;;;4975830;28;20217;-86
2023/01/09 12:05:49;;;;;;;1.77;1.47;;;9.20;99.90;;;;;;4959056;28;20278;-83
2023/01/09 12:08:43;;;;;;;3.10;2.83;;;9.20;99.90;;;;;;4979286;28;20227;-86
2023/01/09 12:11:28;;;;;;;1.83;1.57;;;9.10;99.90;;;;;;4957716;28;20197;-86
2023/01/09 12:14:29;;;;;;;3.23;2.93;;;9.10;99.90;;;;;;4959089;28;20184;-87
2023/01/09 12:17:18;;;;;;;2.20;1.93;;;9.10;99.90;;;;;;4932605;28;20216;-85
2023/01/09 12:20:09;;;;;;;3.60;2.93;;;9.20;99.90;;;;;;4960557;28;20172;-85
2023/01/09 12:22:48;;;;;;;2.33;1.67;;;9.50;99.90;;;;;;4969627;28;20247;-86
2023/01/09 12:25:17;;;;;;;4.13;3.70;;;9.80;99.90;;;;;;4960891;28;20224;-86
2023/01/09 12:28:26;;;;;;;2.47;1.53;;;9.90;99.90;;;;;;4961121;28;20220;-85
2023/01/09 12:31:01;;;;;;;5.67;3.70;;;9.80;99.90;;;;;;4942338;28;20220;-87
2023/01/09 12:33:47;;;;;;;2.77;2.57;;;9.80;99.90;;;;;;4977034;28;20652;-85
2023/01/09 12:36:19;;;;;;;0.80;0.80;;;9.80;99.90;;;;;;4957551;28;20616;-88
2023/01/09 12:38:53;;;;;;;3.67;2.20;;;9.80;99.90;;;;;;4962744;28;20626;-87
2023/01/09 12:41:25;;;;;;;2.43;1.90;;;9.80;99.90;;;;;;4974305;28;20228;-87
2023/01/09 12:44:02;;;;;;;1.23;1.23;;;9.80;99.90;;;;;;4961705;28;20305;-84
2023/01/09 12:46:51;;;;;;;2.70;2.23;;;9.60;99.90;;;;;;4958503;28;20211;-85
2023/01/09 12:49:16;;;;;;;2.67;2.03;;;9.50;99.90;;;;;;4977571;28;20311;-85
2023/01/09 12:52:05;;;;;;;3.60;1.60;;;9.50;99.90;;;;;;4975794;28;20311;-88
2023/01/09 12:54:55;;;;;;;1.33;1.23;;;9.50;99.90;;;;;;4974210;28;20277;-85
2023/01/09 12:57:24;;;;;;;9.67;1.60;;;9.40;99.90;;;;;;4975907;28;20248;-86
2023/01/09 12:59:55;;;;;;;1.40;0.90;;;9.50;99.90;;;;;;4975033;28;20733;-87
2023/01/09 13:02:33;;;;;;;1.43;1.33;;;9.50;99.90;;;;;;4958492;28;20284;-84
2023/01/09 13:05:22;;;;;;;12.67;2.33;;;9.60;99.90;;;;;;4959266;28;20187;-87
2023/01/09 13:07:55;;;;;;;3.10;1.07;;;9.70;99.90;;;;;;4974267;28;20188;-86
2023/01/09 13:10:37;;;;;;;0.90;0.90;;;9.80;99.90;;;;;;4966819;28;20361;-84
2023/01/09 13:13:16;;;;;;;0.40;0.40;;;9.60;99.90;;;;;;4960812;28;20212;-87
2023/01/09 13:15:46;;;;;;;0.37;0.37;;;9.50;99.90;;;;;;4958036;28;20289;-85
2023/01/09 13:18:26;;;;;;;0.60;0.60;;;9.40;99.90;;;;;;4957491;28;20780;-86
2023/01/09 13:20:55;;;;;;;5.03;0.93;;;9.40;99.90;;;;;;4976604;28;20208;-85
2023/01/09 13:23:23;;;;;;;0.37;0.37;;;9.50;99.90;;;;;;4958704;28;20616;-86
2023/01/09 13:25:53;;;;;;;3.80;0.87;;;9.60;99.90;;;;;;4975077;28;20424;-86
2023/01/09 13:28:45;;;;;;;1.60;1.50;;;9.60;99.90;;;;;;4957359;28;20771;-87
2023/01/09 13:31:31;;;;;;;0.73;0.70;;;9.50;99.90;;;;;;4971779;28;20220;-86